TimeCDT,TemperatureF,Dew PointF,Humidity,Sea Level PressureIn,VisibilityMPH,Wind Direction,Wind SpeedMPH,Gust SpeedMPH,PrecipitationIn,Events,Conditions,WindDirDegrees,DateUTC
12:15 AM,70.9,67.3,88,29.95,10.0,SSE,9.2,-,N/A,,Clear,160,2013-08-20 05:15:00
12:35 AM,70.7,67.3,89,29.95,10.0,SSE,9.2,-,N/A,,Clear,160,2013-08-20 05:35:00
12:55 AM,70.7,67.3,89,29.95,10.0,SSE,8.1,-,N/A,,Clear,160,2013-08-20 05:55:00
1:15 AM,70.2,67.1,90,29.95,7.0,SSE,8.1,-,N/A,,Clear,160,2013-08-20 06:15:00
1:35 AM,70.0,67.1,91,29.95,7.0,SSE,5.8,-,N/A,,Clear,160,2013-08-20 06:35:00
1:55 AM,69.8,66.9,91,29.95,7.0,SSE,6.9,-,N/A,,Clear,160,2013-08-20 06:55:00
2:15 AM,69.8,66.7,90,29.95,7.0,South,6.9,-,N/A,,Clear,170,2013-08-20 07:15:00
2:35 AM,69.8,66.7,90,29.95,7.0,South,6.9,-,N/A,,Clear,170,2013-08-20 07:35:00
2:55 AM,69.3,66.4,91,29.95,7.0,South,6.9,-,N/A,,Clear,180,2013-08-20 07:55:00
3:15 AM,70.5,66.7,88,29.95,10.0,South,6.9,-,N/A,,Scattered Clouds,190,2013-08-20 08:15:00
3:35 AM,70.7,66.7,87,29.95,10.0,South,8.1,-,N/A,,Scattered Clouds,180,2013-08-20 08:35:00
3:55 AM,70.7,66.6,87,29.95,10.0,South,8.1,-,N/A,,Mostly Cloudy,190,2013-08-20 08:55:00
4:15 AM,70.7,66.4,86,29.95,10.0,South,9.2,-,N/A,,Scattered Clouds,190,2013-08-20 09:15:00
4:35 AM,70.9,66.2,85,29.95,10.0,South,9.2,-,N/A,,Scattered Clouds,190,2013-08-20 09:35:00
4:55 AM,71.1,66.2,85,29.94,10.0,South,9.2,-,N/A,,Clear,190,2013-08-20 09:55:00
5:15 AM,70.9,66.2,85,29.94,10.0,South,10.4,-,N/A,,Clear,190,2013-08-20 10:15:00
5:35 AM,70.9,66.2,85,29.94,10.0,South,8.1,-,N/A,,Clear,190,2013-08-20 10:35:00
5:55 AM,70.7,65.8,85,29.94,10.0,South,10.4,-,N/A,,Clear,190,2013-08-20 10:55:00
6:15 AM,70.7,66.2,86,29.95,10.0,SSW,8.1,-,N/A,,Clear,200,2013-08-20 11:15:00
6:35 AM,70.7,66.0,85,29.95,10.0,South,8.1,-,N/A,,Clear,190,2013-08-20 11:35:00
6:55 AM,70.2,65.8,86,29.95,10.0,South,8.1,-,N/A,,Clear,190,2013-08-20 11:55:00
7:15 AM,70.0,65.8,87,29.95,10.0,South,9.2,-,N/A,,Clear,190,2013-08-20 12:15:00
7:35 AM,70.9,66.2,85,29.95,10.0,SSW,9.2,-,N/A,,Clear,200,2013-08-20 12:35:00
7:55 AM,71.8,66.4,83,29.96,10.0,SSW,8.1,-,N/A,,Clear,200,2013-08-20 12:55:00
8:15 AM,72.7,66.6,81,29.96,10.0,SSW,10.4,16.1,N/A,,Clear,210,2013-08-20 13:15:00
8:35 AM,73.8,66.7,79,29.96,10.0,SSW,6.9,-,N/A,,Clear,210,2013-08-20 13:35:00
8:55 AM,74.7,66.6,76,29.96,10.0,SSW,11.5,17.3,N/A,,Clear,200,2013-08-20 13:55:00
9:15 AM,76.1,66.9,73,29.97,10.0,SW,13.8,19.6,N/A,,Clear,220,2013-08-20 14:15:00
9:35 AM,77.2,67.3,71,29.97,10.0,SSW,10.4,17.3,N/A,,Clear,200,2013-08-20 14:35:00
9:55 AM,78.4,66.9,68,29.97,10.0,SSW,16.1,-,N/A,,Clear,200,2013-08-20 14:55:00
10:15 AM,79.3,67.3,66,29.97,10.0,SSW,13.8,20.7,N/A,,Clear,210,2013-08-20 15:15:00
10:35 AM,80.6,66.9,63,29.97,10.0,SSW,15.0,21.9,N/A,,Clear,200,2013-08-20 15:35:00
10:55 AM,81.1,67.5,63,29.97,10.0,SW,13.8,19.6,N/A,,Clear,220,2013-08-20 15:55:00
11:15 AM,82.0,68.4,63,29.97,10.0,SSW,11.5,18.4,N/A,,Clear,210,2013-08-20 16:15:00
11:35 AM,84.0,68.2,59,29.97,10.0,SSW,13.8,21.9,N/A,,Clear,210,2013-08-20 16:35:00
11:55 AM,84.2,68.5,59,29.97,10.0,SW,17.3,21.9,N/A,,Clear,220,2013-08-20 16:55:00
12:15 PM,84.6,67.5,56,29.96,10.0,SW,11.5,21.9,N/A,,Clear,220,2013-08-20 17:15:00
12:35 PM,86.0,66.9,53,29.96,10.0,SSW,13.8,21.9,N/A,,Clear,200,2013-08-20 17:35:00
12:55 PM,86.4,67.5,53,29.95,10.0,SSW,15.0,20.7,N/A,,Clear,210,2013-08-20 17:55:00
1:15 PM,86.2,68.4,55,29.95,10.0,SW,10.4,19.6,N/A,,Clear,220,2013-08-20 18:15:00
1:35 PM,87.8,67.6,51,29.95,10.0,SSW,10.4,19.6,N/A,,Clear,210,2013-08-20 18:35:00
1:55 PM,87.8,67.8,51,29.94,10.0,SW,12.7,19.6,N/A,,Clear,220,2013-08-20 18:55:00
2:15 PM,88.7,67.6,50,29.94,10.0,SSW,13.8,19.6,N/A,,Clear,210,2013-08-20 19:15:00
2:35 PM,88.9,67.6,49,29.94,10.0,SSW,15.0,19.6,N/A,,Clear,200,2013-08-20 19:35:00
2:55 PM,89.8,68.2,49,29.93,10.0,SSW,15.0,19.6,N/A,,Clear,200,2013-08-20 19:55:00
3:15 PM,90.3,68.2,48,29.92,10.0,South,13.8,-,N/A,,Clear,180,2013-08-20 20:15:00
3:35 PM,90.5,68.2,48,29.92,10.0,SSW,10.4,18.4,N/A,,Clear,200,2013-08-20 20:35:00
3:55 PM,90.7,68.4,48,29.92,10.0,South,12.7,-,N/A,,Clear,190,2013-08-20 20:55:00
4:15 PM,90.5,68.2,48,29.92,10.0,South,13.8,20.7,N/A,,Clear,190,2013-08-20 21:15:00
4:35 PM,90.3,68.2,48,29.91,10.0,South,13.8,23.0,N/A,,Clear,190,2013-08-20 21:35:00
4:55 PM,90.1,68.4,49,29.91,10.0,South,11.5,19.6,N/A,,Clear,190,2013-08-20 21:55:00
5:15 PM,89.8,68.4,49,29.92,10.0,South,15.0,19.6,N/A,,Clear,190,2013-08-20 22:15:00
5:35 PM,89.6,69.3,51,29.92,10.0,South,10.4,18.4,N/A,,Clear,190,2013-08-20 22:35:00
5:55 PM,88.7,68.7,51,29.91,10.0,South,12.7,-,N/A,,Clear,190,2013-08-20 22:55:00
6:15 PM,87.4,68.2,53,29.92,10.0,SSW,10.4,17.3,N/A,,Clear,200,2013-08-20 23:15:00
6:35 PM,86.2,70.2,59,29.91,10.0,South,6.9,-,N/A,,Clear,180,2013-08-20 23:35:00
6:55 PM,84.2,70.0,62,29.91,10.0,South,9.2,-,N/A,,Clear,180,2013-08-20 23:55:00
7:15 PM,82.4,70.7,68,29.91,10.0,South,5.8,-,N/A,,Clear,170,2013-08-21 00:15:00
7:35 PM,80.6,71.4,73,29.91,10.0,SSE,5.8,-,N/A,,Clear,160,2013-08-21 00:35:00
7:55 PM,79.0,70.7,76,29.92,10.0,South,6.9,-,N/A,,Clear,170,2013-08-21 00:55:00
8:15 PM,77.7,70.0,77,29.92,10.0,SSE,5.8,-,N/A,,Clear,160,2013-08-21 01:15:00
8:35 PM,76.1,69.4,80,29.92,10.0,South,6.9,-,N/A,,Clear,170,2013-08-21 01:35:00
8:55 PM,75.4,69.3,81,29.93,10.0,SSE,5.8,-,N/A,,Clear,160,2013-08-21 01:55:00
9:15 PM,74.5,69.1,83,29.93,10.0,SSE,4.6,-,N/A,,Clear,150,2013-08-21 02:15:00
9:35 PM,74.7,69.1,83,29.93,10.0,SSE,6.9,-,N/A,,Clear,160,2013-08-21 02:35:00
9:55 PM,73.9,68.9,84,29.94,10.0,SSE,5.8,-,N/A,,Clear,160,2013-08-21 02:55:00
10:15 PM,74.3,68.9,83,29.95,10.0,SSE,6.9,-,N/A,,Clear,160,2013-08-21 03:15:00
10:35 PM,74.3,68.9,83,29.95,10.0,South,6.9,-,N/A,,Clear,170,2013-08-21 03:35:00
10:55 PM,74.5,68.5,82,29.95,10.0,South,8.1,-,N/A,,Clear,170,2013-08-21 03:55:00
11:15 PM,74.3,68.4,82,29.95,10.0,South,6.9,-,N/A,,Clear,170,2013-08-21 04:15:00
11:35 PM,73.8,68.0,82,29.94,10.0,South,8.1,-,N/A,,Clear,170,2013-08-21 04:35:00
11:55 PM,72.9,67.8,84,29.94,10.0,SSE,8.1,-,N/A,,Clear,160,2013-08-21 04:55:00